createdAt,value
2019-03-01T17:39:34.972Z,91.10
2019-03-01T17:42:03.480Z,91.30
2019-03-01T17:44:31.939Z,91.10
2019-03-01T17:47:00.462Z,91.20
2019-03-01T17:49:29.706Z,91.40
2019-03-01T17:51:59.162Z,91.40
2019-03-01T17:54:27.652Z,91.50
2019-03-01T17:56:57.206Z,91.40
2019-03-01T17:59:26.400Z,91.90
2019-03-01T18:01:54.866Z,91.90
2019-03-01T18:04:25.066Z,92.10
2019-03-01T18:06:53.549Z,92.00
2019-03-01T18:09:22.019Z,92.80
2019-03-01T18:11:50.486Z,92.10
2019-03-01T18:14:18.927Z,92.30
2019-03-01T18:16:47.326Z,92.40
2019-03-01T18:19:16.151Z,92.40
2019-03-01T18:21:46.429Z,92.50
2019-03-01T18:24:15.246Z,92.20
2019-03-01T18:26:43.898Z,92.20
2019-03-01T18:29:12.363Z,92.30
2019-03-01T18:31:40.779Z,92.40
2019-03-01T18:34:09.242Z,92.30
2019-03-01T18:36:37.654Z,92.50
2019-03-01T18:39:09.421Z,92.40
2019-03-01T18:41:38.746Z,92.60
2019-03-01T18:44:07.168Z,92.50
2019-03-01T18:46:35.655Z,92.50
2019-03-01T18:49:06.147Z,92.70
2019-03-01T18:51:34.157Z,92.40
2019-03-01T18:54:04.088Z,92.80
2019-03-01T18:56:32.921Z,92.50
2019-03-01T18:59:01.412Z,92.80
2019-03-01T19:01:29.870Z,92.80
2019-03-01T19:03:59.059Z,92.80
2019-03-01T19:06:29.265Z,93.20
2019-03-01T19:08:57.995Z,93.10
2019-03-01T19:11:26.375Z,93.30
2019-03-01T19:13:55.236Z,93.20
2019-03-01T19:16:25.361Z,93.10
2019-03-01T19:18:54.591Z,93.10
2019-03-01T19:21:23.069Z,93.10
2019-03-01T19:23:51.458Z,93.30
2019-03-01T19:26:19.867Z,93.10
2019-03-01T19:28:48.420Z,93.40
2019-03-01T19:31:16.907Z,93.40
2019-03-01T19:33:45.484Z,93.20
2019-03-01T19:36:13.946Z,93.30
2019-03-01T19:38:42.398Z,93.60
2019-03-01T19:41:10.858Z,93.60
2019-03-01T19:43:41.672Z,93.50
2019-03-01T19:46:09.300Z,93.50
2019-03-01T19:48:38.118Z,93.60
2019-03-01T19:51:06.660Z,93.50
2019-03-01T19:53:35.250Z,94.10
2019-03-01T19:56:03.683Z,93.90
2019-03-01T19:58:32.154Z,93.60
2019-03-01T20:01:01.380Z,93.60
2019-03-01T20:03:30.024Z,93.80
2019-03-01T20:05:58.409Z,94.20
2019-03-01T20:08:29.782Z,94.50
2019-03-01T20:10:56.955Z,94.10
2019-03-01T20:13:25.411Z,94.10
2019-03-01T20:15:53.940Z,94.20
2019-03-01T20:18:22.414Z,94.40
2019-03-01T20:20:50.819Z,94.20
2019-03-01T20:23:19.205Z,94.10
2019-03-01T20:25:50.655Z,94.60
2019-03-01T20:28:17.846Z,93.80
2019-03-01T20:30:46.698Z,94.20
2019-03-01T20:33:15.178Z,94.10
2019-03-01T20:35:43.648Z,94.10
2019-03-01T20:38:12.038Z,94.30
2019-03-01T20:40:40.538Z,94.00
2019-03-01T20:43:09.043Z,94.10
2019-03-01T20:45:39.352Z,94.00
2019-03-01T20:48:07.775Z,93.80
2019-03-01T20:50:36.631Z,93.70
2019-03-01T20:53:05.346Z,93.50
2019-03-01T20:55:37.042Z,93.90
2019-03-01T20:58:04.338Z,93.70
2019-03-01T21:00:32.913Z,93.80
2019-03-01T21:03:01.315Z,93.90
2019-03-01T21:05:30.548Z,93.90
2019-03-01T21:07:59.134Z,94.10
2019-03-01T21:10:29.461Z,94.40
2019-03-01T21:12:57.879Z,94.60
2019-03-01T21:15:26.351Z,94.80
2019-03-01T21:17:57.085Z,94.50
2019-03-01T21:20:24.981Z,94.70
2019-03-01T21:22:53.567Z,95.20
2019-03-01T21:25:23.174Z,94.30
2019-03-01T21:27:51.595Z,94.60
2019-03-01T21:30:33.705Z,94.30
2019-03-01T21:33:02.362Z,94.10
2019-03-01T21:35:30.785Z,94.30
2019-03-01T21:37:59.171Z,94.30
2019-03-01T21:40:27.638Z,94.30
2019-03-01T21:42:59.710Z,94.80
2019-03-01T21:45:26.203Z,94.80
2019-03-01T21:47:54.633Z,94.70
2019-03-01T21:50:23.018Z,94.80
2019-03-01T21:52:51.516Z,95.00
2019-03-01T21:55:28.006Z,95.00
2019-03-01T21:57:54.641Z,95.00
2019-03-01T22:00:29.370Z,94.90
2019-03-01T22:02:55.369Z,94.70
2019-03-01T22:05:23.786Z,94.70
2019-03-01T22:07:52.251Z,94.60
2019-03-01T22:10:20.641Z,94.60
2019-03-01T22:12:49.067Z,94.10
2019-03-01T22:15:26.796Z,94.30
2019-03-01T22:17:56.220Z,94.60
2019-03-01T22:20:24.593Z,94.50
2019-03-01T22:22:53.552Z,94.50
2019-03-01T22:25:21.943Z,94.20
2019-03-01T22:27:50.427Z,94.40
2019-03-01T22:30:23.041Z,94.10
2019-03-01T22:32:52.255Z,94.20
2019-03-01T22:35:20.681Z,94.40
2019-03-01T22:37:49.080Z,94.20
2019-03-01T22:40:17.549Z,94.10
2019-03-01T22:42:49.721Z,94.00
2019-03-01T22:45:18.185Z,94.00
2019-03-01T22:47:46.636Z,94.00
2019-03-01T22:50:17.877Z,94.10
2019-03-01T22:52:46.277Z,94.00
2019-03-01T22:55:18.884Z,94.00
2019-03-01T22:57:47.425Z,94.00
2019-03-01T23:00:47.726Z,94.40
2019-03-01T23:03:19.001Z,94.00
2019-03-01T23:05:48.026Z,94.00
2019-03-01T23:08:16.478Z,93.90
2019-03-01T23:10:44.907Z,94.00
2019-03-01T23:13:16.958Z,94.00
2019-03-01T23:15:44.535Z,94.00
2019-03-01T23:18:13.159Z,94.10
2019-03-01T23:20:41.957Z,93.90
2019-03-01T23:23:10.363Z,93.90
2019-03-01T23:25:39.106Z,93.90
2019-03-01T23:28:08.228Z,94.30
2019-03-01T23:30:37.589Z,93.90
2019-03-01T23:33:05.996Z,94.00
2019-03-01T23:35:34.496Z,93.90
2019-03-01T23:38:03.009Z,93.80
2019-03-01T23:40:32.714Z,93.90
2019-03-01T23:43:01.606Z,93.90
2019-03-01T23:45:29.994Z,93.90
2019-03-01T23:47:58.407Z,93.90
2019-03-01T23:50:26.816Z,94.00
2019-03-01T23:52:58.921Z,93.90
2019-03-01T23:55:25.353Z,93.80
2019-03-01T23:57:53.802Z,93.70
